sensor_id;sensor_type;location;lat;lon;timestamp;temperature;humidity
24260;DHT22;12384;48.112;18.418;2023-04-25T00:02:09;11.30;99.90
24260;DHT22;12384;48.112;18.418;2023-04-25T00:04:37;11.30;99.90
24260;DHT22;12384;48.112;18.418;2023-04-25T00:07:07;11.20;99.90
24260;DHT22;12384;48.112;18.418;2023-04-25T00:09:36;11.20;99.90
24260;DHT22;12384;48.112;18.418;2023-04-25T00:12:05;11.30;99.90
24260;DHT22;12384;48.112;18.418;2023-04-25T00:14:34;11.20;99.90
24260;DHT22;12384;48.112;18.418;2023-04-25T00:17:02;11.30;99.90
24260;DHT22;12384;48.112;18.418;2023-04-25T00:19:31;11.20;99.90
24260;DHT22;12384;48.112;18.418;2023-04-25T00:22:01;11.20;99.90
24260;DHT22;12384;48.112;18.418;2023-04-25T00:24:30;11.20;99.90
24260;DHT22;12384;48.112;18.418;2023-04-25T00:27:00;11.20;99.90
24260;DHT22;12384;48.112;18.418;2023-04-25T00:29:28;11.20;99.90
24260;DHT22;12384;48.112;18.418;2023-04-25T00:31:57;11.20;99.90
24260;DHT22;12384;48.112;18.418;2023-04-25T00:34:26;11.20;99.90
24260;DHT22;12384;48.112;18.418;2023-04-25T00:36:54;11.20;99.90
24260;DHT22;12384;48.112;18.418;2023-04-25T00:39:24;11.20;99.90
24260;DHT22;12384;48.112;18.418;2023-04-25T00:41:53;11.20;99.90
24260;DHT22;12384;48.112;18.418;2023-04-25T00:44:24;11.10;99.90
24260;DHT22;12384;48.112;18.418;2023-04-25T00:46:54;11.20;99.90
24260;DHT22;12384;48.112;18.418;2023-04-25T00:49:22;11.10;99.90
24260;DHT22;12384;48.112;18.418;2023-04-25T00:51:51;11.10;99.90
24260;DHT22;12384;48.112;18.418;2023-04-25T00:54:19;11.10;99.90
24260;DHT22;12384;48.112;18.418;2023-04-25T00:56:47;11.10;99.90
24260;DHT22;12384;48.112;18.418;2023-04-25T00:59:16;11.10;99.90
24260;DHT22;12384;48.112;18.418;2023-04-25T01:01:46;11.10;99.90
24260;DHT22;12384;48.112;18.418;2023-04-25T01:04:15;11.10;99.90
24260;DHT22;12384;48.112;18.418;2023-04-25T01:06:44;11.10;99.90
24260;DHT22;12384;48.112;18.418;2023-04-25T01:09:13;11.10;99.90
24260;DHT22;12384;48.112;18.418;2023-04-25T01:11:41;11.10;99.90
24260;DHT22;12384;48.112;18.418;2023-04-25T01:14:10;11.00;99.90
24260;DHT22;12384;48.112;18.418;2023-04-25T01:16:38;11.00;99.90
24260;DHT22;12384;48.112;18.418;2023-04-25T01:19:10;11.00;99.90
24260;DHT22;12384;48.112;18.418;2023-04-25T01:21:40;11.00;99.90
24260;DHT22;12384;48.112;18.418;2023-04-25T01:24:09;11.00;99.90
24260;DHT22;12384;48.112;18.418;2023-04-25T01:26:38;11.00;99.90
24260;DHT22;12384;48.112;18.418;2023-04-25T01:29:11;11.00;99.90
24260;DHT22;12384;48.112;18.418;2023-04-25T01:31:40;10.90;99.90
24260;DHT22;12384;48.112;18.418;2023-04-25T01:34:09;10.90;99.90
24260;DHT22;12384;48.112;18.418;2023-04-25T01:36:37;10.90;99.90
24260;DHT22;12384;48.112;18.418;2023-04-25T01:39:07;10.90;99.90
24260;DHT22;12384;48.112;18.418;2023-04-25T01:41:36;10.90;99.90
24260;DHT22;12384;48.112;18.418;2023-04-25T01:44:04;10.90;99.90
24260;DHT22;12384;48.112;18.418;2023-04-25T01:46:33;10.80;99.90
24260;DHT22;12384;48.112;18.418;2023-04-25T01:49:02;10.80;99.90
24260;DHT22;12384;48.112;18.418;2023-04-25T01:51:33;10.80;99.90
24260;DHT22;12384;48.112;18.418;2023-04-25T01:54:01;10.80;99.90
24260;DHT22;12384;48.112;18.418;2023-04-25T01:56:32;10.80;99.90
24260;DHT22;12384;48.112;18.418;2023-04-25T01:59:01;10.80;99.90
24260;DHT22;12384;48.112;18.418;2023-04-25T02:01:48;10.70;99.90
24260;DHT22;12384;48.112;18.418;2023-04-25T02:04:26;10.70;99.90
24260;DHT22;12384;48.112;18.418;2023-04-25T02:06:55;10.70;99.90
24260;DHT22;12384;48.112;18.418;2023-04-25T02:09:29;10.70;99.90
24260;DHT22;12384;48.112;18.418;2023-04-25T02:12:00;10.70;99.90
24260;DHT22;12384;48.112;18.418;2023-04-25T02:14:55;10.70;99.90
24260;DHT22;12384;48.112;18.418;2023-04-25T02:17:36;10.60;99.90
24260;DHT22;12384;48.112;18.418;2023-04-25T02:20:05;10.60;99.90
24260;DHT22;12384;48.112;18.418;2023-04-25T02:22:34;10.60;99.90
24260;DHT22;12384;48.112;18.418;2023-04-25T02:25:06;10.60;99.90
24260;DHT22;12384;48.112;18.418;2023-04-25T02:27:37;10.60;99.90
24260;DHT22;12384;48.112;18.418;2023-04-25T02:30:07;10.60;99.90
24260;DHT22;12384;48.112;18.418;2023-04-25T02:32:36;10.50;99.90
24260;DHT22;12384;48.112;18.418;2023-04-25T02:35:05;10.50;99.90
24260;DHT22;12384;48.112;18.418;2023-04-25T02:37:37;10.50;99.90
24260;DHT22;12384;48.112;18.418;2023-04-25T02:40:07;10.50;99.90
24260;DHT22;12384;48.112;18.418;2023-04-25T02:42:37;10.50;99.90
24260;DHT22;12384;48.112;18.418;2023-04-25T02:45:06;10.40;99.90
24260;DHT22;12384;48.112;18.418;2023-04-25T02:47:35;10.40;99.90
24260;DHT22;12384;48.112;18.418;2023-04-25T02:50:04;10.40;99.90
24260;DHT22;12384;48.112;18.418;2023-04-25T02:52:33;10.40;99.90
24260;DHT22;12384;48.112;18.418;2023-04-25T02:55:09;10.30;99.90
24260;DHT22;12384;48.112;18.418;2023-04-25T02:57:41;10.30;99.90
24260;DHT22;12384;48.112;18.418;2023-04-25T03:00:13;10.30;99.90
24260;DHT22;12384;48.112;18.418;2023-04-25T03:02:42;10.30;99.90
24260;DHT22;12384;48.112;18.418;2023-04-25T03:05:10;10.30;99.90
24260;DHT22;12384;48.112;18.418;2023-04-25T03:07:39;10.30;99.90
24260;DHT22;12384;48.112;18.418;2023-04-25T03:10:10;10.30;99.90
24260;DHT22;12384;48.112;18.418;2023-04-25T03:12:40;10.20;99.90
24260;DHT22;12384;48.112;18.418;2023-04-25T03:15:10;10.20;99.90
24260;DHT22;12384;48.112;18.418;2023-04-25T03:17:38;10.30;99.90
24260;DHT22;12384;48.112;18.418;2023-04-25T03:20:09;10.20;99.90
24260;DHT22;12384;48.112;18.418;2023-04-25T03:22:38;10.20;99.90
24260;DHT22;12384;48.112;18.418;2023-04-25T03:25:07;10.20;99.90
24260;DHT22;12384;48.112;18.418;2023-04-25T03:27:36;10.20;99.90
24260;DHT22;12384;48.112;18.418;2023-04-25T03:30:07;10.20;99.90
24260;DHT22;12384;48.112;18.418;2023-04-25T03:32:37;10.20;99.90
24260;DHT22;12384;48.112;18.418;2023-04-25T03:35:07;10.20;99.90
24260;DHT22;12384;48.112;18.418;2023-04-25T03:37:35;10.20;99.90
24260;DHT22;12384;48.112;18.418;2023-04-25T03:40:04;10.10;99.90
24260;DHT22;12384;48.112;18.418;2023-04-25T03:42:53;10.10;99.90
24260;DHT22;12384;48.112;18.418;2023-04-25T03:45:23;10.10;99.90
24260;DHT22;12384;48.112;18.418;2023-04-25T03:47:52;10.10;99.90
24260;DHT22;12384;48.112;18.418;2023-04-25T03:50:20;10.10;99.90
24260;DHT22;12384;48.112;18.418;2023-04-25T03:52:49;10.10;99.90
24260;DHT22;12384;48.112;18.418;2023-04-25T03:55:18;10.10;99.90
24260;DHT22;12384;48.112;18.418;2023-04-25T03:57:47;10.10;99.90
24260;DHT22;12384;48.112;18.418;2023-04-25T04:00:16;10.10;99.90
24260;DHT22;12384;48.112;18.418;2023-04-25T04:02:46;10.10;99.90
24260;DHT22;12384;48.112;18.418;2023-04-25T04:05:15;10.10;99.90
24260;DHT22;12384;48.112;18.418;2023-04-25T04:07:51;10.00;99.90
24260;DHT22;12384;48.112;18.418;2023-04-25T04:10:20;10.00;99.90
24260;DHT22;12384;48.112;18.418;2023-04-25T04:12:48;9.90;99.90
24260;DHT22;12384;48.112;18.418;2023-04-25T04:15:17;9.90;99.90
24260;DHT22;12384;48.112;18.418;2023-04-25T04:17:49;9.90;99.90
24260;DHT22;12384;48.112;18.418;2023-04-25T04:20:18;9.90;99.90
24260;DHT22;12384;48.112;18.418;2023-04-25T04:22:47;9.90;99.90
24260;DHT22;12384;48.112;18.418;2023-04-25T04:25:16;9.90;99.90
24260;DHT22;12384;48.112;18.418;2023-04-25T04:28:04;9.90;99.90
24260;DHT22;12384;48.112;18.418;2023-04-25T04:30:51;9.90;99.90
24260;DHT22;12384;48.112;18.418;2023-04-25T04:33:21;9.90;99.90
24260;DHT22;12384;48.112;18.418;2023-04-25T04:35:56;9.90;99.90
24260;DHT22;12384;48.112;18.418;2023-04-25T04:38:27;9.90;99.90
24260;DHT22;12384;48.112;18.418;2023-04-25T04:41:00;9.90;99.90
24260;DHT22;12384;48.112;18.418;2023-04-25T04:43:49;9.90;99.90
24260;DHT22;12384;48.112;18.418;2023-04-25T04:46:42;10.00;99.90
24260;DHT22;12384;48.112;18.418;2023-04-25T04:49:31;10.00;99.90
24260;DHT22;12384;48.112;18.418;2023-04-25T04:52:20;10.10;99.90
24260;DHT22;12384;48.112;18.418;2023-04-25T04:54:55;10.10;99.90
24260;DHT22;12384;48.112;18.418;2023-04-25T04:57:59;10.10;99.90
24260;DHT22;12384;48.112;18.418;2023-04-25T05:00:57;10.20;99.90
24260;DHT22;12384;48.112;18.418;2023-04-25T05:03:33;10.20;99.90
24260;DHT22;12384;48.112;18.418;2023-04-25T05:06:24;10.30;99.90
24260;DHT22;12384;48.112;18.418;2023-04-25T05:09:14;10.30;99.90
24260;DHT22;12384;48.112;18.418;2023-04-25T05:11:56;10.40;99.90
24260;DHT22;12384;48.112;18.418;2023-04-25T05:14:37;10.40;99.90
24260;DHT22;12384;48.112;18.418;2023-04-25T05:17:29;10.50;99.90
24260;DHT22;12384;48.112;18.418;2023-04-25T05:20:16;10.60;99.90
24260;DHT22;12384;48.112;18.418;2023-04-25T05:23:05;10.60;99.90
24260;DHT22;12384;48.112;18.418;2023-04-25T05:25:53;10.70;99.90
24260;DHT22;12384;48.112;18.418;2023-04-25T05:28:37;10.80;99.90
24260;DHT22;12384;48.112;18.418;2023-04-25T05:31:24;10.80;99.90
24260;DHT22;12384;48.112;18.418;2023-04-25T05:34:13;10.90;99.90
24260;DHT22;12384;48.112;18.418;2023-04-25T05:36:54;11.00;99.90
24260;DHT22;12384;48.112;18.418;2023-04-25T05:39:25;11.00;99.90
24260;DHT22;12384;48.112;18.418;2023-04-25T05:42:20;11.10;99.90
24260;DHT22;12384;48.112;18.418;2023-04-25T05:44:49;11.10;99.90
24260;DHT22;12384;48.112;18.418;2023-04-25T05:47:25;11.20;99.90
24260;DHT22;12384;48.112;18.418;2023-04-25T05:50:07;11.20;99.90
24260;DHT22;12384;48.112;18.418;2023-04-25T05:52:55;11.30;99.90
24260;DHT22;12384;48.112;18.418;2023-04-25T05:55:29;11.30;99.90
24260;DHT22;12384;48.112;18.418;2023-04-25T05:58:00;11.40;99.90
24260;DHT22;12384;48.112;18.418;2023-04-25T06:00:28;11.40;99.90
24260;DHT22;12384;48.112;18.418;2023-04-25T06:02:57;11.50;99.90
24260;DHT22;12384;48.112;18.418;2023-04-25T06:05:26;11.50;99.90
24260;DHT22;12384;48.112;18.418;2023-04-25T06:07:55;11.60;99.90
24260;DHT22;12384;48.112;18.418;2023-04-25T06:10:23;11.60;99.90
24260;DHT22;12384;48.112;18.418;2023-04-25T06:12:53;11.60;99.90
24260;DHT22;12384;48.112;18.418;2023-04-25T06:15:23;11.70;99.90
24260;DHT22;12384;48.112;18.418;2023-04-25T06:17:55;11.70;99.90
24260;DHT22;12384;48.112;18.418;2023-04-25T06:20:24;11.80;99.90
24260;DHT22;12384;48.112;18.418;2023-04-25T06:22:56;11.80;99.90
24260;DHT22;12384;48.112;18.418;2023-04-25T06:25:37;11.80;99.90
24260;DHT22;12384;48.112;18.418;2023-04-25T06:28:07;11.90;99.90
24260;DHT22;12384;48.112;18.418;2023-04-25T06:30:36;11.90;99.90
24260;DHT22;12384;48.112;18.418;2023-04-25T06:33:10;11.90;99.90
24260;DHT22;12384;48.112;18.418;2023-04-25T06:35:39;12.00;99.90
24260;DHT22;12384;48.112;18.418;2023-04-25T06:38:11;12.10;99.90
24260;DHT22;12384;48.112;18.418;2023-04-25T06:40:44;12.10;99.90
24260;DHT22;12384;48.112;18.418;2023-04-25T06:43:14;12.20;99.90
24260;DHT22;12384;48.112;18.418;2023-04-25T06:45:55;12.30;99.90
24260;DHT22;12384;48.112;18.418;2023-04-25T06:48:27;12.30;99.90
24260;DHT22;12384;48.112;18.418;2023-04-25T06:50:55;12.40;99.90
24260;DHT22;12384;48.112;18.418;2023-04-25T06:53:25;12.50;99.90
24260;DHT22;12384;48.112;18.418;2023-04-25T06:55:59;12.60;99.90
24260;DHT22;12384;48.112;18.418;2023-04-25T06:59:07;12.60;99.90
24260;DHT22;12384;48.112;18.418;2023-04-25T07:01:38;12.70;99.90
24260;DHT22;12384;48.112;18.418;2023-04-25T07:04:15;12.80;99.90
24260;DHT22;12384;48.112;18.418;2023-04-25T07:06:49;12.90;99.90
24260;DHT22;12384;48.112;18.418;2023-04-25T07:09:23;13.00;99.70
24260;DHT22;12384;48.112;18.418;2023-04-25T07:11:52;13.20;99.30
24260;DHT22;12384;48.112;18.418;2023-04-25T07:14:21;13.30;98.80
24260;DHT22;12384;48.112;18.418;2023-04-25T07:16:50;13.40;98.70
24260;DHT22;12384;48.112;18.418;2023-04-25T07:19:19;13.50;98.40
24260;DHT22;12384;48.112;18.418;2023-04-25T07:21:48;13.70;96.60
24260;DHT22;12384;48.112;18.418;2023-04-25T07:24:21;13.70;95.00
24260;DHT22;12384;48.112;18.418;2023-04-25T07:26:51;13.80;93.20
24260;DHT22;12384;48.112;18.418;2023-04-25T07:29:28;13.80;92.10
24260;DHT22;12384;48.112;18.418;2023-04-25T07:31:58;13.90;91.00
24260;DHT22;12384;48.112;18.418;2023-04-25T07:34:27;13.90;90.70
24260;DHT22;12384;48.112;18.418;2023-04-25T07:36:57;14.00;90.40
24260;DHT22;12384;48.112;18.418;2023-04-25T07:39:33;14.10;89.40
24260;DHT22;12384;48.112;18.418;2023-04-25T07:42:02;14.10;87.70
24260;DHT22;12384;48.112;18.418;2023-04-25T07:44:32;14.30;87.00
24260;DHT22;12384;48.112;18.418;2023-04-25T07:47:08;14.40;86.10
24260;DHT22;12384;48.112;18.418;2023-04-25T07:49:37;14.50;85.20
24260;DHT22;12384;48.112;18.418;2023-04-25T07:52:06;14.60;84.10
24260;DHT22;12384;48.112;18.418;2023-04-25T07:54:37;14.70;82.50
24260;DHT22;12384;48.112;18.418;2023-04-25T07:57:13;14.90;80.80
24260;DHT22;12384;48.112;18.418;2023-04-25T07:59:46;15.00;78.10
24260;DHT22;12384;48.112;18.418;2023-04-25T08:02:16;15.00;75.80
24260;DHT22;12384;48.112;18.418;2023-04-25T08:04:45;15.10;73.70
24260;DHT22;12384;48.112;18.418;2023-04-25T08:07:16;15.20;72.20
24260;DHT22;12384;48.112;18.418;2023-04-25T08:09:50;15.20;70.70
24260;DHT22;12384;48.112;18.418;2023-04-25T08:12:27;15.30;69.40
24260;DHT22;12384;48.112;18.418;2023-04-25T08:14:57;15.30;68.30
24260;DHT22;12384;48.112;18.418;2023-04-25T08:17:31;15.40;67.40
24260;DHT22;12384;48.112;18.418;2023-04-25T08:20:00;15.40;66.50
24260;DHT22;12384;48.112;18.418;2023-04-25T08:22:30;15.50;66.00
24260;DHT22;12384;48.112;18.418;2023-04-25T08:25:18;15.50;65.30
24260;DHT22;12384;48.112;18.418;2023-04-25T08:27:46;15.60;64.90
24260;DHT22;12384;48.112;18.418;2023-04-25T08:30:18;15.70;64.20
24260;DHT22;12384;48.112;18.418;2023-04-25T08:32:48;15.80;63.60
24260;DHT22;12384;48.112;18.418;2023-04-25T08:35:40;15.80;62.30
24260;DHT22;12384;48.112;18.418;2023-04-25T08:38:08;15.80;60.70
24260;DHT22;12384;48.112;18.418;2023-04-25T08:40:38;15.90;60.60
24260;DHT22;12384;48.112;18.418;2023-04-25T08:43:13;15.90;60.80
24260;DHT22;12384;48.112;18.418;2023-04-25T08:45:44;16.10;60.90
24260;DHT22;12384;48.112;18.418;2023-04-25T08:48:21;16.20;59.80
24260;DHT22;12384;48.112;18.418;2023-04-25T08:50:53;16.30;58.80
24260;DHT22;12384;48.112;18.418;2023-04-25T08:53:29;16.40;58.00
24260;DHT22;12384;48.112;18.418;2023-04-25T08:56:01;16.50;57.20
24260;DHT22;12384;48.112;18.418;2023-04-25T08:58:35;16.60;56.50
24260;DHT22;12384;48.112;18.418;2023-04-25T09:01:05;16.80;56.00
24260;DHT22;12384;48.112;18.418;2023-04-25T09:03:44;16.90;55.60
24260;DHT22;12384;48.112;18.418;2023-04-25T09:06:14;16.90;55.00
24260;DHT22;12384;48.112;18.418;2023-04-25T09:08:43;17.00;54.10
24260;DHT22;12384;48.112;18.418;2023-04-25T09:11:12;17.00;53.60
24260;DHT22;12384;48.112;18.418;2023-04-25T09:13:41;17.00;53.40
24260;DHT22;12384;48.112;18.418;2023-04-25T09:16:23;17.10;53.30
24260;DHT22;12384;48.112;18.418;2023-04-25T09:19:26;17.10;53.10
24260;DHT22;12384;48.112;18.418;2023-04-25T09:22:17;17.10;52.50
24260;DHT22;12384;48.112;18.418;2023-04-25T09:24:49;17.00;51.90
24260;DHT22;12384;48.112;18.418;2023-04-25T09:27:21;16.90;51.10
24260;DHT22;12384;48.112;18.418;2023-04-25T09:29:58;16.80;51.10
24260;DHT22;12384;48.112;18.418;2023-04-25T09:32:36;16.70;51.00
24260;DHT22;12384;48.112;18.418;2023-04-25T09:35:05;16.60;50.90
24260;DHT22;12384;48.112;18.418;2023-04-25T09:37:35;16.50;51.00
24260;DHT22;12384;48.112;18.418;2023-04-25T09:40:06;16.40;51.00
24260;DHT22;12384;48.112;18.418;2023-04-25T09:42:48;16.30;51.30
24260;DHT22;12384;48.112;18.418;2023-04-25T09:45:18;16.30;51.20
24260;DHT22;12384;48.112;18.418;2023-04-25T09:47:47;16.20;51.00
24260;DHT22;12384;48.112;18.418;2023-04-25T09:50:24;16.20;51.00
24260;DHT22;12384;48.112;18.418;2023-04-25T09:53:05;16.20;51.60
24260;DHT22;12384;48.112;18.418;2023-04-25T09:56:04;16.20;51.10
24260;DHT22;12384;48.112;18.418;2023-04-25T09:58:35;16.20;51.50
24260;DHT22;12384;48.112;18.418;2023-04-25T10:01:05;16.20;51.60
24260;DHT22;12384;48.112;18.418;2023-04-25T10:03:48;16.30;51.50
24260;DHT22;12384;48.112;18.418;2023-04-25T10:06:45;16.40;51.70
24260;DHT22;12384;48.112;18.418;2023-04-25T10:09:19;16.40;51.50
24260;DHT22;12384;48.112;18.418;2023-04-25T10:11:48;16.60;51.50
24260;DHT22;12384;48.112;18.418;2023-04-25T10:14:18;16.70;51.70
24260;DHT22;12384;48.112;18.418;2023-04-25T10:16:48;16.90;51.90
24260;DHT22;12384;48.112;18.418;2023-04-25T10:19:18;17.20;51.80
24260;DHT22;12384;48.112;18.418;2023-04-25T10:21:51;17.50;51.10
24260;DHT22;12384;48.112;18.418;2023-04-25T10:24:20;17.80;50.40
24260;DHT22;12384;48.112;18.418;2023-04-25T10:26:49;18.00;49.80
24260;DHT22;12384;48.112;18.418;2023-04-25T10:29:25;18.20;49.70
24260;DHT22;12384;48.112;18.418;2023-04-25T10:31:54;18.50;49.20
24260;DHT22;12384;48.112;18.418;2023-04-25T10:34:41;18.70;48.80
24260;DHT22;12384;48.112;18.418;2023-04-25T10:37:10;18.90;48.40
24260;DHT22;12384;48.112;18.418;2023-04-25T10:39:40;19.20;48.20
24260;DHT22;12384;48.112;18.418;2023-04-25T10:42:09;19.40;47.90
24260;DHT22;12384;48.112;18.418;2023-04-25T10:44:38;19.70;47.00
24260;DHT22;12384;48.112;18.418;2023-04-25T10:47:08;19.90;45.60
24260;DHT22;12384;48.112;18.418;2023-04-25T10:49:42;19.90;43.60
24260;DHT22;12384;48.112;18.418;2023-04-25T10:52:19;19.90;43.20
24260;DHT22;12384;48.112;18.418;2023-04-25T10:54:54;19.90;43.40
24260;DHT22;12384;48.112;18.418;2023-04-25T10:57:36;19.80;43.50
24260;DHT22;12384;48.112;18.418;2023-04-25T11:00:12;19.90;43.80
24260;DHT22;12384;48.112;18.418;2023-04-25T11:02:43;19.90;43.80
24260;DHT22;12384;48.112;18.418;2023-04-25T11:05:32;20.00;43.60
24260;DHT22;12384;48.112;18.418;2023-04-25T11:08:11;20.10;43.50
24260;DHT22;12384;48.112;18.418;2023-04-25T11:10:41;20.20;43.40
24260;DHT22;12384;48.112;18.418;2023-04-25T11:13:10;20.20;43.20
24260;DHT22;12384;48.112;18.418;2023-04-25T11:15:38;20.30;43.20
24260;DHT22;12384;48.112;18.418;2023-04-25T11:18:07;20.30;42.90
24260;DHT22;12384;48.112;18.418;2023-04-25T11:20:36;20.40;42.80
24260;DHT22;12384;48.112;18.418;2023-04-25T11:23:05;20.40;42.60
24260;DHT22;12384;48.112;18.418;2023-04-25T11:25:33;20.30;42.00
24260;DHT22;12384;48.112;18.418;2023-04-25T11:28:05;20.30;41.70
24260;DHT22;12384;48.112;18.418;2023-04-25T11:30:33;20.20;41.50
24260;DHT22;12384;48.112;18.418;2023-04-25T11:33:02;20.00;40.70
24260;DHT22;12384;48.112;18.418;2023-04-25T11:35:31;19.90;40.40
24260;DHT22;12384;48.112;18.418;2023-04-25T11:38:02;19.80;40.80
24260;DHT22;12384;48.112;18.418;2023-04-25T11:40:30;19.80;41.00
24260;DHT22;12384;48.112;18.418;2023-04-25T11:43:00;19.80;40.90
24260;DHT22;12384;48.112;18.418;2023-04-25T11:45:29;19.80;40.30
24260;DHT22;12384;48.112;18.418;2023-04-25T11:47:58;19.90;40.40
24260;DHT22;12384;48.112;18.418;2023-04-25T11:50:28;20.10;40.80
24260;DHT22;12384;48.112;18.418;2023-04-25T11:52:57;20.50;40.60
24260;DHT22;12384;48.112;18.418;2023-04-25T11:55:30;20.90;40.80
24260;DHT22;12384;48.112;18.418;2023-04-25T11:58:00;21.50;40.60
24260;DHT22;12384;48.112;18.418;2023-04-25T12:00:29;22.10;40.30
24260;DHT22;12384;48.112;18.418;2023-04-25T12:02:58;22.70;39.00
24260;DHT22;12384;48.112;18.418;2023-04-25T12:05:29;23.30;38.20
24260;DHT22;12384;48.112;18.418;2023-04-25T12:08:12;23.90;37.60
24260;DHT22;12384;48.112;18.418;2023-04-25T12:10:44;24.50;37.10
24260;DHT22;12384;48.112;18.418;2023-04-25T12:13:21;25.00;37.40
24260;DHT22;12384;48.112;18.418;2023-04-25T12:15:50;25.60;36.30
24260;DHT22;12384;48.112;18.418;2023-04-25T12:18:23;26.00;34.60
24260;DHT22;12384;48.112;18.418;2023-04-25T12:20:54;26.40;33.20
24260;DHT22;12384;48.112;18.418;2023-04-25T12:23:26;26.60;32.80
24260;DHT22;12384;48.112;18.418;2023-04-25T12:25:57;26.80;32.70
24260;DHT22;12384;48.112;18.418;2023-04-25T12:28:25;27.10;32.30
24260;DHT22;12384;48.112;18.418;2023-04-25T12:30:56;27.30;31.30
24260;DHT22;12384;48.112;18.418;2023-04-25T12:33:27;27.50;31.00
24260;DHT22;12384;48.112;18.418;2023-04-25T12:35:56;27.60;30.90
24260;DHT22;12384;48.112;18.418;2023-04-25T12:38:26;27.90;30.00
24260;DHT22;12384;48.112;18.418;2023-04-25T12:40:58;28.00;29.80
24260;DHT22;12384;48.112;18.418;2023-04-25T12:43:26;28.30;30.30
24260;DHT22;12384;48.112;18.418;2023-04-25T12:45:56;28.50;29.40
24260;DHT22;12384;48.112;18.418;2023-04-25T12:48:25;28.40;27.90
24260;DHT22;12384;48.112;18.418;2023-04-25T12:50:53;28.20;27.90
24260;DHT22;12384;48.112;18.418;2023-04-25T12:53:22;28.00;28.30
24260;DHT22;12384;48.112;18.418;2023-04-25T12:55:51;27.80;28.90
24260;DHT22;12384;48.112;18.418;2023-04-25T12:58:22;27.60;28.50
24260;DHT22;12384;48.112;18.418;2023-04-25T13:00:52;27.30;28.10
24260;DHT22;12384;48.112;18.418;2023-04-25T13:03:20;26.80;27.80
24260;DHT22;12384;48.112;18.418;2023-04-25T13:05:49;26.20;28.00
24260;DHT22;12384;48.112;18.418;2023-04-25T13:08:19;25.60;28.30
24260;DHT22;12384;48.112;18.418;2023-04-25T13:10:48;25.10;28.70
24260;DHT22;12384;48.112;18.418;2023-04-25T13:13:16;24.60;28.80
24260;DHT22;12384;48.112;18.418;2023-04-25T13:15:46;24.20;29.60
24260;DHT22;12384;48.112;18.418;2023-04-25T13:18:14;23.90;29.90
24260;DHT22;12384;48.112;18.418;2023-04-25T13:20:43;23.80;30.70
24260;DHT22;12384;48.112;18.418;2023-04-25T13:23:13;23.90;31.90
24260;DHT22;12384;48.112;18.418;2023-04-25T13:25:41;24.20;32.10
24260;DHT22;12384;48.112;18.418;2023-04-25T13:28:10;24.60;31.70
24260;DHT22;12384;48.112;18.418;2023-04-25T13:30:38;24.90;31.30
24260;DHT22;12384;48.112;18.418;2023-04-25T13:33:08;25.40;31.40
24260;DHT22;12384;48.112;18.418;2023-04-25T13:35:38;25.90;30.50
24260;DHT22;12384;48.112;18.418;2023-04-25T13:38:07;26.40;29.90
24260;DHT22;12384;48.112;18.418;2023-04-25T13:40:36;26.80;30.20
24260;DHT22;12384;48.112;18.418;2023-04-25T13:43:04;27.30;30.40
24260;DHT22;12384;48.112;18.418;2023-04-25T13:45:33;27.80;30.00
24260;DHT22;12384;48.112;18.418;2023-04-25T13:48:02;28.20;29.30
24260;DHT22;12384;48.112;18.418;2023-04-25T13:50:32;28.30;27.80
24260;DHT22;12384;48.112;18.418;2023-04-25T13:53:00;28.00;27.10
24260;DHT22;12384;48.112;18.418;2023-04-25T13:55:29;27.50;26.90
24260;DHT22;12384;48.112;18.418;2023-04-25T13:57:57;26.80;27.00
24260;DHT22;12384;48.112;18.418;2023-04-25T14:00:26;26.10;27.30
24260;DHT22;12384;48.112;18.418;2023-04-25T14:02:54;25.40;27.70
24260;DHT22;12384;48.112;18.418;2023-04-25T14:05:23;24.70;28.20
24260;DHT22;12384;48.112;18.418;2023-04-25T14:07:53;24.10;28.50
24260;DHT22;12384;48.112;18.418;2023-04-25T14:10:22;23.40;28.80
24260;DHT22;12384;48.112;18.418;2023-04-25T14:12:50;22.80;29.10
24260;DHT22;12384;48.112;18.418;2023-04-25T14:15:19;22.40;29.60
24260;DHT22;12384;48.112;18.418;2023-04-25T14:17:47;22.00;29.90
24260;DHT22;12384;48.112;18.418;2023-04-25T14:20:16;21.60;30.10
24260;DHT22;12384;48.112;18.418;2023-04-25T14:22:47;21.20;30.20
24260;DHT22;12384;48.112;18.418;2023-04-25T14:25:17;20.80;30.90
24260;DHT22;12384;48.112;18.418;2023-04-25T14:27:45;20.50;31.10
24260;DHT22;12384;48.112;18.418;2023-04-25T14:30:17;20.10;31.30
24260;DHT22;12384;48.112;18.418;2023-04-25T14:32:46;19.90;32.20
24260;DHT22;12384;48.112;18.418;2023-04-25T14:35:14;19.70;33.30
24260;DHT22;12384;48.112;18.418;2023-04-25T14:37:43;19.60;34.10
24260;DHT22;12384;48.112;18.418;2023-04-25T14:40:12;19.50;34.40
24260;DHT22;12384;48.112;18.418;2023-04-25T14:42:43;19.40;34.30
24260;DHT22;12384;48.112;18.418;2023-04-25T14:45:12;19.20;34.40
24260;DHT22;12384;48.112;18.418;2023-04-25T14:47:40;19.00;34.60
24260;DHT22;12384;48.112;18.418;2023-04-25T14:50:10;18.70;35.00
24260;DHT22;12384;48.112;18.418;2023-04-25T14:52:38;18.40;35.40
24260;DHT22;12384;48.112;18.418;2023-04-25T14:55:07;18.10;36.10
24260;DHT22;12384;48.112;18.418;2023-04-25T14:57:36;17.70;36.80
24260;DHT22;12384;48.112;18.418;2023-04-25T15:00:08;17.40;37.20
24260;DHT22;12384;48.112;18.418;2023-04-25T15:02:39;17.00;37.20
24260;DHT22;12384;48.112;18.418;2023-04-25T15:05:08;16.70;37.60
24260;DHT22;12384;48.112;18.418;2023-04-25T15:07:37;16.40;38.50
24260;DHT22;12384;48.112;18.418;2023-04-25T15:10:07;16.10;39.90
24260;DHT22;12384;48.112;18.418;2023-04-25T15:12:40;15.80;41.10
24260;DHT22;12384;48.112;18.418;2023-04-25T15:15:10;15.50;41.70
24260;DHT22;12384;48.112;18.418;2023-04-25T15:17:51;15.20;42.20
24260;DHT22;12384;48.112;18.418;2023-04-25T15:20:24;15.00;42.80
24260;DHT22;12384;48.112;18.418;2023-04-25T15:22:52;14.80;43.60
24260;DHT22;12384;48.112;18.418;2023-04-25T15:25:21;14.60;43.80
24260;DHT22;12384;48.112;18.418;2023-04-25T15:27:50;14.60;44.20
24260;DHT22;12384;48.112;18.418;2023-04-25T15:30:20;14.50;44.60
24260;DHT22;12384;48.112;18.418;2023-04-25T15:32:48;14.40;45.00
24260;DHT22;12384;48.112;18.418;2023-04-25T15:35:17;14.40;45.40
24260;DHT22;12384;48.112;18.418;2023-04-25T15:37:45;14.30;45.80
24260;DHT22;12384;48.112;18.418;2023-04-25T15:40:15;14.40;46.00
24260;DHT22;12384;48.112;18.418;2023-04-25T15:42:47;14.40;46.40
24260;DHT22;12384;48.112;18.418;2023-04-25T15:45:21;14.40;46.40
24260;DHT22;12384;48.112;18.418;2023-04-25T15:47:53;14.40;46.80
24260;DHT22;12384;48.112;18.418;2023-04-25T15:50:23;14.50;47.10